Yarnell, AZ

6:15 PM MST on April 18, 2015 (GMT -0700)
Yarnell Proper | | Change Station
CLOSE
Current Station
Personal Weather Station
Location: Yarnell, AZ
Elevation: 4760 ft
Nearby Weather Stations

Elev 4760 ft 34.22 °N, 112.75 °W | Updated 14 minutes ago

Partly Cloudy
Partly Cloudy
72.1 °F
Feels Like 73 °F
N
4.7
Wind Variable Wind from West

Today
High -- | Low -- °F
--% Chance of Precip.
Yesterday
High -- | Low -- °F
Precip. -- in
5:56 AM 7:04 PM
New Moon, 0% visible
Pressure 29.83 in
Visibility 10.0 miles
Clouds Few 12000 ft
Heat Index 73 °F
Dew Point 17 °F
Humidity 12%
Rainfall 0.00 in
Snow Depth Not available.
UV 1 out of 12
Pollen 10.30 out of 12
Air Quality Not available.
Flu Activity Local Activity
METAR KPRC 190053Z 25018G22KT 10SM FEW120 21/M10 A2997 RMK AO2 SLP101 T02111100

More Conditions Fewer Conditions

Pressure 29.83 in
Visibility 10.0 miles
Clouds Few 12000 ft
Heat Index 73 °F
Dew Point 17 °F
Humidity 12%
Rainfall 0.00 in
Snow Depth Not available.
UV 1 out of 12
Pollen 10.30 out of 12
Air Quality Not available.
Flu Activity Local Activity
METAR KPRC 190053Z 25018G22KT 10SM FEW120 21/M10 A2997 RMK AO2 SLP101 T02111100

More Conditions Fewer Conditions

10-Day Weather Forecast

Almanac

Astronomy

Apr. 18, 2015 Rise Set
Actual Time
Civil Twilight
Nautical Twilight
Astronomical Twilight
Moon
Length of Visible Light
Length of Day
Tomorrow will be .
, % of the Moon is Illuminated

Today's Extremes

State Highs State Lows

Community

WunderPhotos

Upload Photos

1,814,611 photos uploaded!

WunderBlogs® & News

Nearby

Air Quality

  Air Quality AQ Index Pollutant
Not available.

Snow Depth

Station Depth Elevation

Earthquake Activity

City Distance Mag. Time & Date
Minimum magnitude displayed is 2.5.

Coastal Water Temperatures

Place Temperature

Stations

Nearby Weather Stations

Station Location Temp. Windchill Dew Point Humidity Wind Precip. Elev Updated Type